Time;durP1;ratioP1;P1;durP2;ratioP2;P2;SDS_P1;SDS_P2;PMS_P1;PMS_P2;Temp;Humidity;BMP_temperature;BMP_pressure;BME280_temperature;BME280_humidity;BME280_pressure;Samples;Min_cycle;Max_cycle;Signal;HPM_P1;HPM_P2
2023/01/31 00:02:17;;;;;;;53.50;20.65;;;0.80;99.90;;;;;;5036096;28;20526;-89
2023/01/31 00:04:42;;;;;;;55.25;19.48;;;0.80;99.90;;;;;;5052690;28;20029;-89
2023/01/31 00:07:08;;;;;;;63.40;23.08;;;0.80;99.90;;;;;;5052188;28;20165;-88
2023/01/31 00:09:34;;;;;;;49.35;19.73;;;0.80;99.90;;;;;;5052527;28;20025;-89
2023/01/31 00:11:59;;;;;;;57.03;20.40;;;0.80;99.90;;;;;;5035884;28;20021;-88
2023/01/31 00:14:25;;;;;;;63.25;21.73;;;0.80;99.90;;;;;;5053367;28;20366;-89
2023/01/31 00:16:51;;;;;;;44.88;20.60;;;0.80;99.90;;;;;;5036304;28;20022;-89
2023/01/31 00:19:17;;;;;;;52.78;20.67;;;0.80;99.90;;;;;;5052474;28;20029;-88
2023/01/31 00:21:44;;;;;;;69.38;22.92;;;0.70;99.90;;;;;;5035753;28;20021;-89
2023/01/31 00:24:12;;;;;;;58.00;22.05;;;0.70;99.90;;;;;;5035701;28;20170;-89
2023/01/31 00:26:38;;;;;;;63.33;23.27;;;0.70;99.90;;;;;;5035203;28;20879;-88
2023/01/31 00:29:04;;;;;;;60.58;23.35;;;0.70;99.90;;;;;;5035086;28;20029;-88
2023/01/31 00:31:32;;;;;;;57.20;20.75;;;0.70;99.90;;;;;;5034639;28;20025;-89
2023/01/31 00:33:58;;;;;;;63.30;21.10;;;0.60;99.90;;;;;;5051493;28;20025;-89
2023/01/31 00:36:32;;;;;;;60.10;23.85;;;0.60;99.90;;;;;;5035606;28;20059;-88
2023/01/31 00:39:00;;;;;;;56.45;23.52;;;0.60;99.90;;;;;;5036087;28;20120;-89
2023/01/31 00:41:27;;;;;;;67.03;22.17;;;0.60;99.90;;;;;;5034065;28;20504;-88
2023/01/31 00:43:53;;;;;;;61.75;24.50;;;0.60;99.90;;;;;;5046791;28;20029;-89
2023/01/31 00:46:19;;;;;;;62.75;22.75;;;0.60;99.90;;;;;;5052110;28;20369;-88
2023/01/31 00:48:45;;;;;;;64.22;23.50;;;0.70;99.90;;;;;;5035348;28;20037;-88
2023/01/31 00:51:11;;;;;;;72.15;23.58;;;0.60;99.90;;;;;;5052264;28;20025;-88
2023/01/31 00:53:37;;;;;;;63.42;22.17;;;0.60;99.90;;;;;;5052893;28;20033;-88
2023/01/31 00:56:09;;;;;;;64.25;24.05;;;0.60;99.90;;;;;;5035295;28;20045;-88
2023/01/31 00:58:35;;;;;;;62.40;22.95;;;0.70;99.90;;;;;;5040445;28;20428;-89
2023/01/31 01:01:21;;;;;;;59.42;23.50;;;0.70;99.90;;;;;;5052293;28;20464;-88
2023/01/31 01:03:47;;;;;;;63.72;23.33;;;0.70;99.90;;;;;;5051703;28;20029;-88
2023/01/31 01:06:14;;;;;;;64.40;22.58;;;0.70;99.90;;;;;;5051955;28;20021;-89
2023/01/31 01:08:42;;;;;;;60.38;21.58;;;0.70;99.90;;;;;;5051749;28;20111;-89
2023/01/31 01:11:11;;;;;;;58.45;22.38;;;0.70;99.90;;;;;;5035657;28;20048;-88
2023/01/31 01:13:37;;;;;;;55.88;22.23;;;0.70;99.90;;;;;;5034892;28;20111;-88
2023/01/31 01:16:08;;;;;;;62.13;22.83;;;0.70;99.90;;;;;;5052278;28;20079;-88
2023/01/31 01:18:35;;;;;;;60.83;23.50;;;0.70;99.90;;;;;;5038633;28;20059;-88
2023/01/31 01:21:06;;;;;;;54.47;21.83;;;0.70;99.90;;;;;;5055098;28;20013;-88
2023/01/31 01:23:32;;;;;;;;;;;0.70;99.90;;;;;;5038881;28;20701;-89
2023/01/31 01:25:57;;;;;;;56.92;20.20;;;0.70;99.90;;;;;;5038784;28;19915;-88
2023/01/31 01:28:23;;;;;;;60.78;24.58;;;0.70;99.90;;;;;;5038516;28;20029;-89
2023/01/31 01:30:49;;;;;;;55.25;21.48;;;0.70;99.90;;;;;;5038845;28;20029;-88
2023/01/31 01:33:14;;;;;;;65.55;21.92;;;0.70;99.90;;;;;;5038293;28;20036;-89
2023/01/31 01:35:45;;;;;;;58.13;22.33;;;0.70;99.90;;;;;;5055671;28;20487;-89
2023/01/31 01:38:11;;;;;;;60.75;21.63;;;0.80;99.90;;;;;;5039128;28;20076;-88
2023/01/31 01:40:37;;;;;;;77.22;22.73;;;0.80;99.90;;;;;;5071969;28;20064;-89
2023/01/31 01:43:03;;;;;;;54.67;19.63;;;0.80;99.90;;;;;;5038574;28;20503;-88
2023/01/31 01:45:29;;;;;;;66.75;21.92;;;0.80;99.90;;;;;;5054965;28;20052;-89
2023/01/31 01:47:59;;;;;;;58.88;22.80;;;0.80;99.90;;;;;;5055252;28;20047;-88
2023/01/31 01:50:28;;;;;;;58.75;20.58;;;0.80;99.90;;;;;;5054541;28;20025;-88
2023/01/31 01:53:20;;;;;;;64.00;22.85;;;0.70;99.90;;;;;;5038481;28;20021;-89
2023/01/31 01:56:02;;;;;;;65.03;21.67;;;0.70;99.90;;;;;;5052520;28;20037;-88
2023/01/31 01:58:38;;;;;;;59.28;22.17;;;0.70;99.90;;;;;;5035358;28;20033;-88
2023/01/31 02:01:06;;;;;;;65.10;19.38;;;0.70;99.90;;;;;;5054961;28;20033;-87
2023/01/31 02:03:32;;;;;;;55.35;23.42;;;0.70;99.90;;;;;;5054702;28;20029;-88
2023/01/31 02:06:04;;;;;;;60.28;20.30;;;0.70;99.90;;;;;;5037648;28;20070;-88
2023/01/31 02:08:34;;;;;;;55.55;21.58;;;0.70;99.90;;;;;;5054987;28;20029;-89
2023/01/31 02:11:14;;;;;;;54.03;21.23;;;0.70;99.90;;;;;;5054651;28;20059;-88
2023/01/31 02:13:41;;;;;;;64.53;22.08;;;0.60;99.90;;;;;;5054642;28;20381;-89
2023/01/31 02:16:13;;;;;;;62.70;22.85;;;0.60;99.90;;;;;;5055495;28;20033;-88
2023/01/31 02:18:39;;;;;;;64.43;23.00;;;0.60;99.90;;;;;;5037741;28;20025;-89
2023/01/31 02:21:44;;;;;;;54.67;20.42;;;0.60;99.90;;;;;;5054471;28;20592;-88
2023/01/31 02:24:51;;;;;;;60.28;20.75;;;0.60;99.90;;;;;;5037361;28;20083;-87
2023/01/31 02:27:39;;;;;;;60.15;21.17;;;0.60;99.90;;;;;;5043597;28;20063;-88
2023/01/31 02:30:48;;;;;;;63.05;22.60;;;0.60;99.90;;;;;;5064781;28;20029;-88
2023/01/31 02:33:25;;;;;;;62.85;22.15;;;0.60;99.90;;;;;;5053504;28;20025;-90
2023/01/31 02:35:59;;;;;;;66.15;24.20;;;0.50;99.90;;;;;;5069959;28;20021;-88
2023/01/31 02:38:35;;;;;;;61.85;22.63;;;0.60;99.90;;;;;;5036557;28;20392;-88
2023/01/31 02:41:26;;;;;;;60.35;21.83;;;0.50;99.90;;;;;;5036341;28;20021;-89
2023/01/31 02:47:15;;;;;;;65.18;23.90;;;0.40;99.90;;;;;;5052913;28;20480;-89
2023/01/31 02:49:49;;;;;;;69.88;20.55;;;0.40;99.90;;;;;;5036328;28;20037;-88
2023/01/31 02:52:57;;;;;;;68.63;23.55;;;0.40;99.90;;;;;;5052983;28;20021;-87
2023/01/31 02:59:14;;;;;;;69.30;22.67;;;0.30;99.90;;;;;;5058878;28;20025;-88
2023/01/31 03:01:58;;;;;;;65.03;25.17;;;0.40;99.90;;;;;;5051461;28;20052;-88
2023/01/31 03:04:30;;;;;;;61.42;21.17;;;0.30;99.90;;;;;;5036367;28;20362;-88
2023/01/31 03:07:06;;;;;;;74.95;22.98;;;0.30;99.90;;;;;;5069586;28;20373;-88
2023/01/31 03:09:42;;;;;;;65.28;21.90;;;0.30;99.90;;;;;;5036211;28;20033;-89
2023/01/31 03:12:21;;;;;;;68.93;21.95;;;0.20;99.90;;;;;;5036319;28;20029;-88
2023/01/31 03:15:00;;;;;;;62.38;21.85;;;0.20;99.90;;;;;;5053137;28;20028;-88
2023/01/31 03:18:05;;;;;;;76.18;22.45;;;0.20;99.90;;;;;;5052347;28;20017;-87
2023/01/31 03:20:43;;;;;;;65.13;23.38;;;0.20;99.90;;;;;;5035121;28;20131;-88
2023/01/31 03:23:17;;;;;;;65.20;21.73;;;0.20;99.90;;;;;;5052078;28;20033;-88
2023/01/31 03:25:48;;;;;;;74.82;24.55;;;0.10;99.90;;;;;;5036531;28;20025;-89
2023/01/31 03:28:41;;;;;;;68.93;22.63;;;0.10;99.90;;;;;;5052941;28;20029;-88
2023/01/31 03:31:37;;;;;;;81.97;26.40;;;0.10;99.90;;;;;;5029989;28;20086;-88
2023/01/31 03:34:08;;;;;;;82.78;25.42;;;0.10;99.90;;;;;;5029435;28;20040;-88
2023/01/31 03:36:57;;;;;;;87.78;26.00;;;0.10;99.90;;;;;;5052530;28;20043;-88
2023/01/31 03:40:04;;;;;;;75.30;24.63;;;0.00;99.90;;;;;;5051547;28;20079;-88
2023/01/31 03:42:56;;;;;;;74.80;23.13;;;0.00;99.90;;;;;;5048395;28;20029;-88
2023/01/31 03:45:29;;;;;;;56.22;21.15;;;-0.10;99.90;;;;;;5031509;28;20101;-87
2023/01/31 03:47:58;;;;;;;70.80;23.90;;;-0.10;99.90;;;;;;5031405;28;20226;-87
2023/01/31 03:50:28;;;;;;;77.72;22.13;;;-0.10;99.90;;;;;;5052233;28;20029;-87
2023/01/31 03:52:58;;;;;;;70.18;22.90;;;-0.10;99.90;;;;;;5051835;28;20017;-88
2023/01/31 03:55:33;;;;;;;71.38;20.95;;;-0.20;99.90;;;;;;5052418;28;20037;-88
2023/01/31 03:58:01;;;;;;;75.43;22.30;;;-0.20;99.90;;;;;;5052464;28;20500;-87
2023/01/31 04:00:28;;;;;;;69.63;25.73;;;-0.20;99.90;;;;;;5051794;28;20037;-84
2023/01/31 04:03:03;;;;;;;78.55;22.73;;;-0.30;99.90;;;;;;5049507;28;20025;-84
2023/01/31 04:05:31;;;;;;;68.65;23.10;;;-0.40;99.90;;;;;;5035041;28;20044;-84
2023/01/31 04:07:59;;;;;;;79.05;24.02;;;-0.40;99.90;;;;;;5050909;28;20025;-85
2023/01/31 04:10:26;;;;;;;65.93;22.30;;;-0.40;99.90;;;;;;5034735;28;20039;-84
2023/01/31 04:12:55;;;;;;;87.85;25.30;;;-0.40;99.90;;;;;;5034425;28;20037;-85
2023/01/31 04:15:33;;;;;;;81.80;23.35;;;-0.50;99.90;;;;;;5034409;28;20045;-84
2023/01/31 04:18:07;;;;;;;87.07;21.80;;;-0.60;99.90;;;;;;5018532;28;20044;-84
2023/01/31 04:21:08;;;;;;;90.18;23.92;;;-0.60;99.90;;;;;;5030018;28;20033;-84
2023/01/31 04:23:34;;;;;;;86.63;26.10;;;-0.50;99.90;;;;;;5050957;28;20033;-85
2023/01/31 04:26:00;;;;;;;83.18;25.17;;;-0.60;99.90;;;;;;5034247;28;20075;-84
2023/01/31 04:28:26;;;;;;;99.75;24.08;;;-0.60;99.90;;;;;;5034173;28;20095;-84
2023/01/31 04:30:53;;;;;;;102.75;26.42;;;-0.70;99.90;;;;;;5050032;28;20465;-85
2023/01/31 04:33:25;;;;;;;93.72;24.75;;;-0.70;99.90;;;;;;5034453;28;20456;-84
2023/01/31 04:36:06;;;;;;;108.10;25.10;;;-0.80;99.90;;;;;;5050880;28;20021;-85
2023/01/31 04:38:32;;;;;;;80.95;25.13;;;-1.00;99.90;;;;;;5034201;28;20029;-85
2023/01/31 04:40:58;;;;;;;86.60;25.10;;;-1.00;99.90;;;;;;5050667;28;20032;-85
2023/01/31 04:43:24;;;;;;;98.88;24.90;;;-1.00;99.90;;;;;;5050612;28;20028;-85
2023/01/31 04:45:50;;;;;;;88.38;24.85;;;-1.00;99.90;;;;;;5050404;28;20036;-85
2023/01/31 04:48:41;;;;;;;105.68;26.05;;;-1.00;99.90;;;;;;5050490;28;20051;-85
2023/01/31 04:51:07;;;;;;;104.57;24.90;;;-1.00;99.90;;;;;;5051352;28;20129;-85
2023/01/31 04:53:33;;;;;;;118.32;26.35;;;-1.00;99.90;;;;;;5054643;28;20032;-85
2023/01/31 04:55:59;;;;;;;87.57;25.40;;;-1.10;99.90;;;;;;5037918;28;20039;-84
2023/01/31 04:58:24;;;;;;;94.53;23.33;;;-1.00;99.90;;;;;;5054503;28;20082;-84
2023/01/31 05:00:52;;;;;;;96.80;24.70;;;-1.00;99.90;;;;;;5037529;28;20021;-84
2023/01/31 05:03:18;;;;;;;91.65;23.20;;;-1.10;99.90;;;;;;5054302;28;20241;-84
2023/01/31 05:05:46;;;;;;;94.20;24.48;;;-1.00;99.90;;;;;;5054144;28;20025;-85
2023/01/31 05:08:11;;;;;;;89.55;25.17;;;-1.00;99.90;;;;;;5054430;28;20059;-84
2023/01/31 05:10:39;;;;;;;97.68;26.67;;;-1.00;99.90;;;;;;5053924;28;20053;-84
2023/01/31 05:13:06;;;;;;;95.78;25.42;;;-1.00;99.90;;;;;;5037519;28;20024;-85
2023/01/31 05:15:31;;;;;;;86.07;24.48;;;-1.10;99.90;;;;;;5036747;28;20044;-84
2023/01/31 05:18:03;;;;;;;102.60;25.15;;;-1.10;99.90;;;;;;5053995;28;20025;-85
2023/01/31 05:20:37;;;;;;;103.10;24.33;;;-1.20;99.90;;;;;;5054031;28;20040;-84
2023/01/31 05:23:12;;;;;;;103.65;26.30;;;-1.20;99.90;;;;;;5054134;28;20485;-85
2023/01/31 05:25:38;;;;;;;96.68;26.75;;;-1.30;99.90;;;;;;5037288;28;20029;-84
2023/01/31 05:28:04;;;;;;;95.45;25.10;;;-1.30;99.90;;;;;;5054225;28;20397;-84
2023/01/31 05:30:29;;;;;;;111.35;27.15;;;-1.20;99.90;;;;;;5037389;28;20162;-84
2023/01/31 05:32:55;;;;;;;88.32;26.05;;;-1.20;99.90;;;;;;5053652;28;20017;-84
2023/01/31 05:35:21;;;;;;;106.22;26.88;;;-1.20;99.90;;;;;;5036765;28;20029;-84
2023/01/31 05:37:47;;;;;;;102.80;27.02;;;-1.20;99.90;;;;;;5036928;28;20732;-84
2023/01/31 05:40:15;;;;;;;96.43;27.05;;;-1.30;99.90;;;;;;5037148;28;20101;-84
2023/01/31 05:42:41;;;;;;;114.72;28.42;;;-1.30;99.90;;;;;;5037460;28;20052;-84
2023/01/31 05:45:08;;;;;;;112.00;29.02;;;-1.20;99.90;;;;;;5053871;28;20103;-84
2023/01/31 05:47:34;;;;;;;109.10;28.25;;;-1.20;99.90;;;;;;5037415;28;20036;-85
2023/01/31 05:50:00;;;;;;;112.30;28.27;;;-1.30;99.90;;;;;;5036905;28;20032;-84
2023/01/31 05:52:26;;;;;;;127.30;30.02;;;-1.30;99.90;;;;;;5037213;28;20388;-84
2023/01/31 05:54:51;;;;;;;123.38;28.90;;;-1.20;99.90;;;;;;5036377;28;20035;-85
2023/01/31 05:57:17;;;;;;;114.57;30.85;;;-1.30;99.90;;;;;;5037162;28;20032;-84
2023/01/31 05:59:43;;;;;;;115.25;28.60;;;-1.20;99.90;;;;;;5036685;28;20033;-84
2023/01/31 06:02:12;;;;;;;114.63;28.25;;;-1.20;99.90;;;;;;5035909;28;20411;-84
2023/01/31 06:04:38;;;;;;;135.35;32.63;;;-1.30;99.90;;;;;;5052836;28;20083;-84
2023/01/31 06:07:04;;;;;;;116.15;29.50;;;-1.20;99.90;;;;;;5036590;28;20733;-84
2023/01/31 06:09:30;;;;;;;108.78;29.65;;;-1.20;99.90;;;;;;5036669;28;20396;-84
2023/01/31 06:11:55;;;;;;;100.63;27.05;;;-1.20;99.90;;;;;;5052942;28;20025;-85
2023/01/31 06:14:21;;;;;;;94.95;28.80;;;-1.20;99.90;;;;;;5036557;28;20043;-85
2023/01/31 06:16:47;;;;;;;114.80;29.88;;;-1.20;99.90;;;;;;5053378;28;20033;-84
2023/01/31 06:19:13;;;;;;;106.80;29.77;;;-1.30;99.90;;;;;;5036815;28;20082;-84
2023/01/31 06:21:38;;;;;;;132.93;31.08;;;-1.30;99.90;;;;;;5036523;28;20071;-84
2023/01/31 06:24:04;;;;;;;110.68;26.20;;;-1.30;99.90;;;;;;5036224;28;20041;-84
2023/01/31 06:26:30;;;;;;;121.28;29.33;;;-1.30;99.90;;;;;;5036309;28;20037;-84
2023/01/31 06:28:57;;;;;;;119.30;31.38;;;-1.20;99.90;;;;;;5052231;28;20064;-84
2023/01/31 06:31:23;;;;;;;115.30;29.92;;;-1.20;99.90;;;;;;5035933;28;20551;-84
2023/01/31 06:33:49;;;;;;;111.45;29.00;;;-1.30;99.90;;;;;;5052481;28;20082;-84
2023/01/31 06:36:15;;;;;;;103.55;26.13;;;-1.40;99.90;;;;;;5035962;28;20380;-85
2023/01/31 06:38:41;;;;;;;120.78;28.23;;;-1.50;99.90;;;;;;5052470;28;20020;-84
2023/01/31 06:41:07;;;;;;;117.05;30.95;;;-1.60;99.90;;;;;;5052820;28;20025;-84
2023/01/31 06:43:46;;;;;;;127.05;34.25;;;-1.80;99.90;;;;;;5035494;28;20111;-84
2023/01/31 06:46:22;;;;;;;134.90;34.25;;;-1.90;99.90;;;;;;5052594;28;20036;-85
2023/01/31 06:48:48;;;;;;;146.30;38.35;;;-1.80;99.90;;;;;;5044405;28;20029;-84
2023/01/31 06:51:15;;;;;;;169.73;41.53;;;-1.70;99.90;;;;;;5042264;28;20388;-84
2023/01/31 06:53:40;;;;;;;161.73;43.47;;;-1.40;99.90;;;;;;5026934;28;20614;-83
2023/01/31 06:56:07;;;;;;;162.98;44.22;;;-1.10;99.90;;;;;;5040460;28;20025;-84
2023/01/31 06:58:33;;;;;;;195.70;51.58;;;-1.00;99.90;;;;;;5037072;28;20354;-84
2023/01/31 07:01:09;;;;;;;168.20;46.17;;;-0.90;99.90;;;;;;5041353;28;20031;-84
2023/01/31 07:03:35;;;;;;;438.73;64.28;;;-0.80;99.90;;;;;;5040646;28;20112;-85
2023/01/31 07:06:01;;;;;;;324.02;53.33;;;-0.80;99.90;;;;;;5046706;28;20416;-85
2023/01/31 07:08:27;;;;;;;176.00;50.17;;;-0.70;99.90;;;;;;5030312;28;20025;-86
2023/01/31 07:10:53;;;;;;;221.57;47.47;;;-0.70;99.90;;;;;;5024486;28;20487;-85
2023/01/31 07:13:37;;;;;;;176.13;44.53;;;-0.60;99.90;;;;;;5020370;28;20036;-86
2023/01/31 07:16:03;;;;;;;189.55;42.83;;;-0.50;99.90;;;;;;5026144;28;20120;-86
2023/01/31 07:18:29;;;;;;;208.40;45.85;;;-0.50;99.90;;;;;;5038439;28;20029;-86
2023/01/31 07:21:01;;;;;;;153.82;41.10;;;-0.50;99.90;;;;;;5041719;28;20075;-86
2023/01/31 07:23:27;;;;;;;158.52;43.30;;;-0.50;99.90;;;;;;5024260;28;20539;-86
2023/01/31 07:25:53;;;;;;;591.90;85.53;;;-0.50;99.90;;;;;;5029032;28;20029;-86
2023/01/31 07:28:18;;;;;;;498.75;72.07;;;-0.50;99.90;;;;;;5031332;28;20813;-86
2023/01/31 07:31:04;;;;;;;900.00;91.18;;;-0.40;99.90;;;;;;5035812;28;20029;-86
2023/01/31 07:33:32;;;;;;;793.00;83.63;;;-0.40;99.90;;;;;;5042051;28;20064;-86
2023/01/31 07:36:05;;;;;;;324.00;56.35;;;-0.30;99.90;;;;;;5032250;28;20021;-86
2023/01/31 07:39:24;;;;;;;867.65;87.82;;;-0.40;99.90;;;;;;5018256;28;20079;-85
2023/01/31 07:42:21;;;;;;;234.20;45.70;;;-0.40;99.90;;;;;;5036126;28;20132;-86
2023/01/31 07:44:48;;;;;;;426.45;54.97;;;-0.30;99.90;;;;;;5031590;28;20032;-86
2023/01/31 07:47:13;;;;;;;285.80;47.63;;;-0.30;99.90;;;;;;5048040;28;20024;-86
2023/01/31 07:49:39;;;;;;;348.48;49.35;;;-0.30;99.90;;;;;;5018248;28;20029;-85
2023/01/31 07:52:05;;;;;;;657.00;73.78;;;-0.30;99.90;;;;;;5042638;28;20036;-85
2023/01/31 07:54:31;;;;;;;343.55;53.53;;;-0.30;99.90;;;;;;5024406;28;20029;-86
2023/01/31 07:56:57;;;;;;;713.75;76.82;;;-0.30;99.90;;;;;;5017629;28;20021;-85
2023/01/31 07:59:22;;;;;;;853.55;88.80;;;-0.30;99.90;;;;;;5017793;28;20021;-86
2023/01/31 08:04:33;;;;;;;331.92;48.97;;;-0.40;99.90;;;;;;5035625;28;20057;-86
2023/01/31 08:07:01;;;;;;;513.25;59.17;;;-0.30;99.90;;;;;;5024312;28;20040;-86
2023/01/31 08:09:48;;;;;;;469.08;54.42;;;-0.30;99.90;;;;;;5039392;28;20038;-86
2023/01/31 08:12:14;;;;;;;672.03;67.47;;;-0.30;99.90;;;;;;5018808;28;20025;-85
2023/01/31 08:14:40;;;;;;;786.38;71.40;;;-0.30;99.90;;;;;;5022714;28;20018;-86
2023/01/31 08:17:07;;;;;;;537.83;61.45;;;-0.30;99.90;;;;;;5058422;28;20075;-86
2023/01/31 08:19:33;;;;;;;980.90;88.45;;;-0.40;99.90;;;;;;5019646;28;20029;-86
2023/01/31 08:21:59;;;;;;;1233.82;108.45;;;-0.40;99.90;;;;;;5057344;28;20053;-85
2023/01/31 08:24:25;;;;;;;679.25;69.20;;;-0.40;99.90;;;;;;5016501;28;20040;-86
2023/01/31 08:26:51;;;;;;;1016.95;100.82;;;-0.50;99.90;;;;;;5032327;28;20482;-85
2023/01/31 08:29:17;;;;;;;962.13;91.18;;;-0.40;99.90;;;;;;5032862;28;20030;-86
2023/01/31 08:31:46;;;;;;;896.25;77.35;;;-0.30;99.90;;;;;;5047002;28;20030;-86
2023/01/31 08:34:11;;;;;;;869.38;76.22;;;-0.40;99.90;;;;;;5030190;28;20036;-86
2023/01/31 08:36:37;;;;;;;512.55;59.75;;;-0.40;99.90;;;;;;5055025;28;20021;-85
2023/01/31 08:39:03;;;;;;;426.25;55.70;;;-0.30;99.90;;;;;;5037825;28;20115;-86
2023/01/31 08:41:33;;;;;;;163.45;37.15;;;-0.20;99.90;;;;;;5055133;28;20051;-85
2023/01/31 08:43:59;;;;;;;230.85;40.83;;;-0.20;99.90;;;;;;5038208;28;20044;-86
2023/01/31 08:46:28;;;;;;;172.55;36.67;;;-0.10;99.90;;;;;;5038361;28;20027;-85
2023/01/31 08:48:54;;;;;;;163.63;37.55;;;0.00;99.90;;;;;;5038105;28;20033;-84
2023/01/31 08:51:21;;;;;;;321.50;41.05;;;0.00;99.90;;;;;;5038443;28;20067;-85
2023/01/31 08:53:47;;;;;;;546.92;57.65;;;-0.20;99.90;;;;;;5054767;28;20321;-85
2023/01/31 08:56:14;;;;;;;194.00;40.15;;;-0.20;99.90;;;;;;5038398;28;20037;-86
2023/01/31 08:58:41;;;;;;;182.75;35.55;;;-0.10;99.90;;;;;;5054548;28;20029;-85
2023/01/31 09:01:15;;;;;;;166.45;36.55;;;-0.20;99.90;;;;;;5037928;28;20040;-85
2023/01/31 09:03:41;;;;;;;162.20;37.25;;;-0.20;99.90;;;;;;5054779;28;20025;-85
2023/01/31 09:06:13;;;;;;;130.10;35.00;;;-0.10;99.90;;;;;;5054692;28;20078;-86
2023/01/31 09:08:38;;;;;;;155.15;38.22;;;-0.20;99.90;;;;;;5037994;28;20036;-85
2023/01/31 09:11:04;;;;;;;147.75;40.15;;;-0.10;99.90;;;;;;5037728;28;20025;-86
2023/01/31 09:13:30;;;;;;;148.45;40.20;;;0.00;99.90;;;;;;5037660;28;20037;-85
2023/01/31 09:16:01;;;;;;;128.85;40.15;;;0.00;99.90;;;;;;5055502;28;20558;-85
2023/01/31 09:18:28;;;;;;;132.73;39.03;;;-0.10;99.90;;;;;;5037469;28;20574;-85
2023/01/31 09:20:54;;;;;;;124.15;34.20;;;0.10;99.90;;;;;;5053287;28;20029;-85
2023/01/31 09:23:20;;;;;;;111.93;37.50;;;0.20;99.90;;;;;;5054261;28;20071;-85
2023/01/31 09:25:53;;;;;;;130.55;40.22;;;0.30;99.90;;;;;;5053997;28;20060;-86
2023/01/31 09:28:22;;;;;;;119.97;36.03;;;0.30;99.90;;;;;;5054086;28;20040;-86
2023/01/31 09:30:49;;;;;;;143.82;43.33;;;0.30;99.90;;;;;;5054048;28;20145;-85
2023/01/31 09:33:15;;;;;;;119.25;38.35;;;0.30;99.90;;;;;;5037340;28;20040;-85
2023/01/31 09:35:41;;;;;;;111.05;35.03;;;0.50;99.90;;;;;;5053946;28;20503;-86
2023/01/31 09:38:07;;;;;;;119.85;38.53;;;0.50;99.90;;;;;;5053380;28;20026;-86
2023/01/31 09:40:36;;;;;;;113.35;38.63;;;0.50;99.90;;;;;;5054050;28;20021;-85
2023/01/31 09:43:03;;;;;;;123.72;42.47;;;0.50;99.90;;;;;;5037247;28;20052;-86
2023/01/31 09:45:35;;;;;;;93.85;29.35;;;0.50;99.90;;;;;;5053796;28;20033;-85
2023/01/31 09:48:04;;;;;;;112.72;37.50;;;0.40;99.90;;;;;;5053647;28;20419;-85
2023/01/31 09:50:44;;;;;;;97.97;31.73;;;0.40;99.90;;;;;;5036627;28;20036;-85
2023/01/31 09:53:12;;;;;;;102.22;33.63;;;0.50;99.90;;;;;;5036762;28;20029;-86
2023/01/31 09:55:52;;;;;;;92.70;30.00;;;0.60;99.90;;;;;;5036851;28;20052;-85
2023/01/31 09:58:39;;;;;;;83.35;29.17;;;0.90;99.90;;;;;;5053154;28;20044;-86
2023/01/31 10:01:14;;;;;;;92.38;27.35;;;0.80;99.90;;;;;;5049676;28;20033;-85
2023/01/31 10:04:23;;;;;;;84.82;27.67;;;0.80;99.90;;;;;;5036580;28;20025;-86
2023/01/31 10:06:55;;;;;;;73.65;25.13;;;1.00;99.90;;;;;;5052049;28;20035;-85
2023/01/31 10:09:43;;;;;;;69.53;22.23;;;1.10;99.90;;;;;;5050354;28;20032;-85
2023/01/31 10:12:54;;;;;;;85.22;24.05;;;1.10;99.90;;;;;;5050155;28;20037;-85
2023/01/31 10:15:55;;;;;;;66.25;20.88;;;1.10;99.90;;;;;;5032500;28;20030;-85
2023/01/31 10:18:36;;;;;;;64.43;23.58;;;1.00;99.90;;;;;;5040246;28;20350;-85
2023/01/31 10:21:13;;;;;;;56.78;19.73;;;0.90;99.90;;;;;;5047103;28;20484;-85
2023/01/31 10:23:47;;;;;;;57.50;20.80;;;0.80;99.90;;;;;;5021369;28;20084;-85
2023/01/31 10:26:25;;;;;;;57.92;19.33;;;0.80;99.90;;;;;;5036114;28;20029;-85
2023/01/31 10:29:31;;;;;;;62.05;18.17;;;0.80;99.90;;;;;;5047749;28;20063;-85
2023/01/31 10:32:03;;;;;;;63.75;19.73;;;0.80;99.90;;;;;;5032029;28;20075;-86
2023/01/31 10:34:44;;;;;;;57.88;20.75;;;0.90;99.90;;;;;;5024537;28;20025;-85
2023/01/31 10:37:34;;;;;;;53.42;18.98;;;1.00;99.90;;;;;;5042276;28;20033;-85
2023/01/31 10:40:12;;;;;;;55.00;18.73;;;1.20;99.90;;;;;;5039497;28;20057;-85
2023/01/31 10:42:39;;;;;;;68.20;21.48;;;1.30;99.90;;;;;;5028891;28;20029;-85
2023/01/31 10:45:07;;;;;;;60.58;21.50;;;1.40;99.90;;;;;;5019558;28;20358;-85
2023/01/31 10:47:35;;;;;;;49.85;18.25;;;1.60;99.90;;;;;;5031922;28;20029;-85
2023/01/31 10:50:13;;;;;;;51.92;18.83;;;1.50;99.90;;;;;;5038844;28;20037;-85
2023/01/31 10:53:04;;;;;;;47.30;17.38;;;1.60;99.90;;;;;;5034056;28;20029;-85
2023/01/31 10:55:30;;;;;;;50.70;16.40;;;1.60;99.90;;;;;;5048757;28;20109;-85
2023/01/31 10:57:57;;;;;;;48.63;16.45;;;1.60;99.90;;;;;;5053184;28;20112;-86
2023/01/31 11:00:27;;;;;;;42.97;15.48;;;1.60;99.90;;;;;;5051794;28;20029;-85
2023/01/31 11:02:53;;;;;;;42.30;15.30;;;1.60;99.90;;;;;;5035173;28;20033;-85
2023/01/31 11:05:22;;;;;;;44.45;15.60;;;1.70;99.90;;;;;;5030998;28;20039;-85
2023/01/31 11:07:49;;;;;;;44.75;15.73;;;1.80;99.90;;;;;;5051786;28;20108;-85
2023/01/31 11:10:24;;;;;;;42.20;15.38;;;1.80;99.90;;;;;;5024184;28;20029;-85
2023/01/31 11:13:00;;;;;;;43.47;16.42;;;1.80;99.90;;;;;;5029262;28;20034;-85
2023/01/31 11:15:34;;;;;;;41.25;14.20;;;1.80;99.90;;;;;;5041703;28;20025;-85
2023/01/31 11:18:00;;;;;;;40.05;14.45;;;1.70;99.90;;;;;;5045032;28;20033;-85
2023/01/31 11:20:32;;;;;;;41.60;14.73;;;1.60;99.90;;;;;;5047111;28;20021;-85
2023/01/31 11:23:01;;;;;;;36.80;15.00;;;1.60;99.90;;;;;;5053326;28;20036;-84
2023/01/31 11:25:29;;;;;;;45.85;14.32;;;1.60;99.90;;;;;;5047122;28;20433;-85
2023/01/31 11:28:02;;;;;;;36.90;13.57;;;1.50;99.90;;;;;;5052969;28;20056;-84
2023/01/31 11:30:31;;;;;;;42.85;14.43;;;1.50;99.90;;;;;;5034997;28;20025;-85
2023/01/31 11:32:57;;;;;;;44.70;15.60;;;1.30;99.90;;;;;;5052079;28;20028;-85
2023/01/31 11:35:26;;;;;;;41.88;15.45;;;1.40;99.90;;;;;;5051462;28;20025;-85
2023/01/31 11:37:55;;;;;;;38.35;14.43;;;1.40;99.90;;;;;;5034676;28;20062;-86
2023/01/31 11:40:29;;;;;;;44.38;14.88;;;1.40;99.90;;;;;;5050067;28;20032;-85
2023/01/31 11:43:00;;;;;;;39.42;15.60;;;1.40;99.90;;;;;;5035197;28;20477;-85
2023/01/31 11:45:30;;;;;;;;;;;1.30;99.90;;;;;;5027934;28;20040;-85
2023/01/31 11:47:58;;;;;;;41.35;13.35;;;1.30;99.90;;;;;;5051441;28;19909;-85
2023/01/31 11:50:34;;;;;;;47.88;14.57;;;1.30;99.90;;;;;;5026773;28;20037;-85
2023/01/31 11:53:03;;;;;;;36.50;14.07;;;1.30;99.90;;;;;;5034688;28;20036;-85
2023/01/31 11:55:38;;;;;;;41.13;14.20;;;1.40;99.90;;;;;;5034818;28;20033;-85
2023/01/31 11:58:16;;;;;;;42.85;15.40;;;1.30;99.90;;;;;;5052328;28;20369;-85
2023/01/31 12:00:58;;;;;;;55.25;15.02;;;1.40;99.90;;;;;;5051185;28;20823;-85
2023/01/31 12:03:25;;;;;;;50.58;22.45;;;1.40;99.90;;;;;;5051513;28;20021;-85
2023/01/31 12:06:03;;;;;;;43.53;16.05;;;1.40;99.90;;;;;;5034544;28;20029;-85
2023/01/31 12:08:38;;;;;;;40.80;15.25;;;1.50;99.90;;;;;;5034717;28;20035;-85
2023/01/31 12:11:27;;;;;;;50.72;15.90;;;1.50;99.90;;;;;;5034716;28;20480;-86
2023/01/31 12:14:11;;;;;;;42.95;17.23;;;1.50;99.90;;;;;;5051066;28;20082;-85
2023/01/31 12:16:37;;;;;;;41.60;14.43;;;1.60;99.90;;;;;;5052727;28;20025;-85
2023/01/31 12:19:12;;;;;;;45.65;15.95;;;1.70;99.90;;;;;;5051009;28;20025;-85
2023/01/31 12:21:50;;;;;;;49.05;15.48;;;1.60;99.90;;;;;;5050577;28;20032;-86
2023/01/31 12:24:35;;;;;;;41.40;16.20;;;1.60;99.90;;;;;;5033457;28;20045;-85
2023/01/31 12:27:20;;;;;;;41.30;15.10;;;1.50;99.90;;;;;;5050663;28;20029;-85
2023/01/31 12:30:28;;;;;;;40.42;16.52;;;1.50;99.90;;;;;;5034204;28;20086;-85
2023/01/31 12:33:28;;;;;;;44.35;18.30;;;1.50;99.90;;;;;;5034659;28;20104;-85
2023/01/31 12:36:32;;;;;;;51.30;18.13;;;1.40;99.90;;;;;;5030031;28;20021;-85
2023/01/31 12:39:33;;;;;;;38.40;15.52;;;1.30;99.90;;;;;;5039112;28;20029;-85
2023/01/31 12:42:41;;;;;;;36.97;16.67;;;1.30;99.90;;;;;;5033937;28;20067;-85
2023/01/31 12:45:12;;;;;;;45.17;19.08;;;1.30;99.90;;;;;;5013410;28;20094;-85
2023/01/31 12:48:17;;;;;;;38.63;16.17;;;1.40;99.90;;;;;;5033856;28;20022;-85
2023/01/31 12:51:02;;;;;;;48.33;14.60;;;1.30;99.90;;;;;;5044845;28;20029;-85
2023/01/31 12:53:42;;;;;;;46.15;16.13;;;1.20;99.90;;;;;;5033614;28;20029;-85
2023/01/31 12:56:36;;;;;;;45.38;16.42;;;1.30;99.90;;;;;;5046189;28;20484;-85
2023/01/31 12:59:32;;;;;;;47.30;16.10;;;1.20;99.90;;;;;;5034444;28;20445;-85
2023/01/31 13:02:07;;;;;;;36.25;15.45;;;1.20;99.90;;;;;;5030701;28;20033;-85
2023/01/31 13:04:44;;;;;;;35.33;15.55;;;1.30;99.90;;;;;;5049547;28;20115;-85
2023/01/31 13:07:37;;;;;;;43.78;15.90;;;1.30;99.90;;;;;;5050282;28;20502;-85
2023/01/31 13:10:09;;;;;;;36.55;16.02;;;1.30;99.90;;;;;;5031613;28;20026;-85